Time;durP1;ratioP1;P1;durP2;ratioP2;P2;SDS_P1;SDS_P2;PMS_P1;PMS_P2;Temp;Humidity;BMP_temperature;BMP_pressure;BME280_temperature;BME280_humidity;BME280_pressure;Samples;Min_cycle;Max_cycle;Signal;HPM_P1;HPM_P2
2022/06/25 00:01:13;;;;;;;10.78;5.75;;;;;;;13.97;100.00;100403.75;1776896;80;21954;-44
2022/06/25 00:03:39;;;;;;;12.53;6.33;;;;;;;13.93;100.00;100403.02;1778789;79;20900;-44
2022/06/25 00:06:06;;;;;;;12.63;6.08;;;;;;;13.90;100.00;100405.73;1778014;80;20967;-44
2022/06/25 00:08:34;;;;;;;8.00;5.70;;;;;;;13.89;100.00;100412.27;1777411;80;21055;-44
2022/06/25 00:11:01;;;;;;;13.88;6.33;;;;;;;13.89;100.00;100411.83;1781769;80;20982;-44
2022/06/25 00:13:28;;;;;;;10.10;6.10;;;;;;;13.90;100.00;100411.37;1782805;79;21133;-44
2022/06/25 00:15:54;;;;;;;12.98;5.92;;;;;;;13.94;100.00;100409.92;1778251;79;20979;-44
2022/06/25 00:18:22;;;;;;;16.70;6.45;;;;;;;13.99;100.00;100405.84;1777187;80;21520;-44
2022/06/25 00:20:49;;;;;;;22.22;5.70;;;;;;;14.04;100.00;100402.66;1776301;80;20983;-44
2022/06/25 00:23:16;;;;;;;10.25;5.90;;;;;;;14.11;100.00;100402.45;1777092;80;20891;-44
2022/06/25 00:25:43;;;;;;;8.75;5.75;;;;;;;14.15;100.00;100398.39;1779600;79;21228;-43
2022/06/25 00:28:10;;;;;;;12.35;6.15;;;;;;;14.20;100.00;100400.81;1775959;80;20907;-43
2022/06/25 00:30:37;;;;;;;5.85;5.37;;;;;;;14.26;100.00;100398.46;1776651;80;20884;-44
2022/06/25 00:33:04;;;;;;;11.43;5.50;;;;;;;14.30;100.00;100394.41;1779157;79;20928;-44
2022/06/25 00:35:32;;;;;;;10.43;5.92;;;;;;;14.35;100.00;100395.53;1779340;80;20920;-44
2022/06/25 00:37:58;;;;;;;7.90;5.00;;;;;;;14.39;100.00;100397.58;1780737;79;21133;-44
2022/06/25 00:40:25;;;;;;;16.32;5.92;;;;;;;14.42;100.00;100399.64;1781458;80;20852;-44
2022/06/25 00:42:52;;;;;;;14.80;6.05;;;;;;;14.47;100.00;100404.22;1776933;80;20973;-44
2022/06/25 00:45:19;;;;;;;5.87;5.30;;;;;;;14.51;100.00;100399.30;1777508;80;20884;-44
2022/06/25 00:47:46;;;;;;;15.13;6.00;;;;;;;14.54;100.00;100402.70;1784723;80;20903;-44
2022/06/25 00:50:13;;;;;;;13.48;5.90;;;;;;;14.57;100.00;100405.19;1776822;80;21233;-44
2022/06/25 00:52:44;;;;;;;8.18;5.87;;;;;;;14.61;100.00;100410.23;1776975;80;20952;-44
2022/06/25 00:55:12;;;;;;;9.90;5.90;;;;;;;14.64;100.00;100408.82;1775598;80;21002;-44
2022/06/25 00:57:41;;;;;;;12.70;5.53;;;;;;;14.68;100.00;100408.70;1777247;80;20989;-43
2022/06/25 01:00:12;;;;;;;9.78;5.62;;;;;;;14.70;100.00;100406.89;1780370;79;21447;-44
2022/06/25 01:02:40;;;;;;;11.05;5.83;;;;;;;14.72;100.00;100402.07;1755037;80;21138;-44
2022/06/25 01:05:09;;;;;;;10.93;6.17;;;;;;;14.75;100.00;100402.39;1768637;79;20908;-44
2022/06/25 01:07:36;;;;;;;8.08;5.92;;;;;;;14.79;100.00;100402.70;1725218;80;20951;-44
2022/06/25 01:10:06;;;;;;;13.40;5.78;;;;;;;14.83;100.00;100406.02;1747384;81;21023;-44
2022/06/25 01:12:34;;;;;;;14.45;6.20;;;;;;;14.85;100.00;100406.37;1749571;80;21514;-44
2022/06/25 01:15:11;;;;;;;9.90;5.67;;;;;;;14.89;100.00;100401.44;1788383;79;21168;-44
2022/06/25 01:17:49;;;;;;;13.05;5.95;;;;;;;14.90;100.00;100408.35;1733586;82;22296;-44
2022/06/25 01:20:21;;;;;;;8.85;5.35;;;;;;;14.91;100.00;100412.66;1766302;81;21484;-44
2022/06/25 01:22:50;;;;;;;7.22;5.67;;;;;;;14.94;100.00;100413.84;1762285;81;20911;-44
2022/06/25 01:25:16;;;;;;;11.73;5.70;;;;;;;14.94;100.00;100411.23;1764180;80;20935;-44
2022/06/25 01:27:44;;;;;;;11.55;5.72;;;;;;;14.95;100.00;100414.70;1746542;81;21903;-44
2022/06/25 01:30:12;;;;;;;12.37;5.60;;;;;;;14.97;100.00;100412.89;1758392;79;21014;-44
2022/06/25 01:32:40;;;;;;;8.30;5.20;;;;;;;14.98;100.00;100415.89;1750180;80;20941;-44
2022/06/25 01:35:10;;;;;;;19.32;6.25;;;;;;;15.01;100.00;100409.25;1764514;80;20894;-44
2022/06/25 01:37:37;;;;;;;8.05;5.83;;;;;;;15.02;100.00;100416.16;1759215;80;21013;-44
2022/06/25 01:40:06;;;;;;;10.58;6.00;;;;;;;15.03;100.00;100413.95;1764732;80;21245;-44
2022/06/25 01:45:19;;;;;;;13.70;5.85;;;;;;;15.05;100.00;100415.21;1762610;80;20986;-44
2022/06/25 01:47:46;;;;;;;7.00;6.25;;;;;;;15.05;100.00;100417.34;1758159;80;20899;-44
2022/06/25 01:50:13;;;;;;;8.23;5.55;;;;;;;15.06;100.00;100416.44;1770202;80;20978;-44
2022/06/25 01:52:43;;;;;;;9.95;5.60;;;;;;;15.06;100.00;100419.05;1775331;80;21145;-44
2022/06/25 01:55:10;;;;;;;13.13;5.97;;;;;;;15.08;100.00;100424.22;1768656;81;20973;-43
2022/06/25 01:57:38;;;;;;;12.40;5.58;;;;;;;15.08;100.00;100428.95;1768570;81;21307;-44
2022/06/25 02:00:10;;;;;;;9.23;5.78;;;;;;;15.11;100.00;100432.36;1748787;80;20867;-44
2022/06/25 02:02:45;;;;;;;9.03;5.58;;;;;;;15.11;100.00;100427.14;1776342;80;21397;-44
2022/06/25 02:05:13;;;;;;;7.33;5.65;;;;;;;15.13;100.00;100426.19;1772494;80;21211;-44
2022/06/25 02:07:40;;;;;;;6.10;5.35;;;;;;;15.13;100.00;100427.48;1772304;80;20938;-44
2022/06/25 02:10:08;;;;;;;14.55;6.03;;;;;;;15.14;100.00;100428.33;1761933;81;21064;-44
2022/06/25 02:12:35;;;;;;;12.15;5.28;;;;;;;15.15;100.00;100438.70;1771186;80;21048;-44
2022/06/25 02:15:05;;;;;;;9.20;5.42;;;;;;;15.17;100.00;100437.36;1769258;80;21448;-44
2022/06/25 02:17:33;;;;;;;5.95;5.22;;;;;;;15.18;100.00;100442.50;1734192;81;21237;-44
2022/06/25 02:19:59;;;;;;;10.65;5.17;;;;;;;15.19;100.00;100444.20;1758852;80;20900;-44
2022/06/25 02:22:26;;;;;;;10.53;6.45;;;;;;;15.21;100.00;100442.38;1752917;81;21658;-44
2022/06/25 02:24:53;;;;;;;12.53;5.58;;;;;;;15.22;100.00;100441.47;1755707;80;20904;-43
2022/06/25 02:27:20;;;;;;;5.55;5.05;;;;;;;15.25;100.00;100440.95;1740361;81;20994;-44
2022/06/25 02:29:46;;;;;;;13.75;5.70;;;;;;;15.27;100.00;100448.26;1766328;80;21141;-44
2022/06/25 02:32:13;;;;;;;8.00;4.97;;;;;;;15.29;100.00;100457.73;1764178;80;20990;-44
2022/06/25 02:34:40;;;;;;;9.03;5.45;;;;;;;15.32;100.00;100456.78;1761833;80;21062;-44
2022/06/25 02:37:06;;;;;;;14.58;5.25;;;;;;;15.34;100.00;100457.57;1766224;80;20895;-44
2022/06/25 02:39:33;;;;;;;9.40;5.22;;;;;;;15.36;100.00;100457.05;1768650;80;21526;-43
2022/06/25 02:42:00;;;;;;;9.53;5.25;;;;;;;15.40;100.00;100457.33;1770675;80;21052;-44
2022/06/25 02:44:27;;;;;;;9.90;5.50;;;;;;;15.43;100.00;100461.11;1772777;80;20922;-44
2022/06/25 02:46:55;;;;;;;16.20;5.42;;;;;;;15.45;100.00;100464.98;1768433;80;21484;-44
2022/06/25 02:49:24;;;;;;;10.00;5.87;;;;;;;15.46;100.00;100459.69;1775724;80;21432;-44
2022/06/25 02:51:51;;;;;;;8.68;4.80;;;;;;;15.48;100.00;100457.03;1778627;80;21884;-43
2022/06/25 02:54:17;;;;;;;10.85;5.17;;;;;;;15.50;100.00;100464.34;1767295;80;21148;-43
2022/06/25 02:59:31;;;;;;;8.20;4.87;;;;;;;15.52;100.00;100458.61;1758256;80;21010;-44
2022/06/25 03:01:59;;;;;;;11.65;5.58;;;;;;;15.54;100.00;100459.87;1731589;81;21484;-44
2022/06/25 03:04:27;;;;;;;7.25;4.90;;;;;;;15.56;100.00;100461.48;1760837;80;20891;-44
2022/06/25 03:06:55;;;;;;;8.58;5.62;;;;;;;15.55;100.00;100468.09;1733610;81;21199;-44
2022/06/25 03:09:23;;;;;;;15.00;5.10;;;;;;;15.57;100.00;100468.88;1774585;80;20928;-44
2022/06/25 03:11:50;;;;;;;10.40;5.28;;;;;;;15.58;100.00;100469.27;1776547;80;21482;-44
2022/06/25 03:14:17;;;;;;;13.80;5.00;;;;;;;15.60;100.00;100470.05;1775908;79;21022;-44
2022/06/25 03:16:44;;;;;;;12.03;5.03;;;;;;;15.60;100.00;100468.75;1777028;80;20978;-43
2022/06/25 03:19:12;;;;;;;8.10;5.03;;;;;;;15.62;100.00;100470.84;1780379;80;21126;-44
2022/06/25 03:21:55;;;;;;;14.10;5.33;;;;;;;15.66;100.00;100473.72;1765702;80;20900;-44
2022/06/25 03:24:22;;;;;;;7.72;4.62;;;;;;;15.69;100.00;100473.59;1775385;79;20967;-44
2022/06/25 03:26:49;;;;;;;10.15;4.85;;;;;;;15.71;100.00;100473.08;1776689;80;21437;-44
2022/06/25 03:29:15;;;;;;;9.55;4.83;;;;;;;15.75;100.00;100474.65;1777678;80;20915;-43
2022/06/25 03:31:43;;;;;;;7.17;4.85;;;;;;;15.78;100.00;100474.52;1774122;80;21129;-43
2022/06/25 03:34:28;;;;;;;11.67;4.87;;;;;;;15.84;100.00;100477.82;1775721;80;20908;-44
2022/06/25 03:36:55;;;;;;;8.55;5.10;;;;;;;15.89;100.00;100478.52;1776441;80;21434;-44
2022/06/25 03:39:22;;;;;;;9.88;5.47;;;;;;;15.93;100.00;100480.08;1775867;80;20979;-44
2022/06/25 03:41:50;;;;;;;9.00;5.22;;;;;;;15.98;100.00;100483.34;1776572;80;20880;-44
2022/06/25 03:44:36;;;;;;;9.30;5.40;;;;;;;16.04;100.00;100483.12;1769973;78;21281;-43
2022/06/25 03:47:05;;;;;;;8.25;5.20;;;;;;;16.13;100.00;100490.17;1774969;79;20920;-44
2022/06/25 03:49:33;;;;;;;9.70;4.95;;;;;;;16.22;100.00;100493.70;1777640;79;20963;-44
2022/06/25 03:52:01;;;;;;;10.80;6.62;;;;;;;16.31;100.00;100486.80;1775543;80;20908;-44
2022/06/25 03:54:28;;;;;;;8.93;5.42;;;;;;;16.39;100.00;100482.54;1776399;79;20966;-44
2022/06/25 03:56:54;;;;;;;10.75;5.30;;;;;;;16.50;100.00;100492.53;1777957;80;21248;-44
2022/06/25 03:59:23;;;;;;;11.55;5.10;;;;;;;16.59;100.00;100501.30;1776201;79;20877;-44
2022/06/25 04:01:52;;;;;;;6.15;4.62;;;;;;;16.65;100.00;100494.95;1775470;79;21002;-44
2022/06/25 04:04:19;;;;;;;10.60;4.65;;;;;;;16.70;100.00;100494.31;1747826;80;20900;-44
2022/06/25 04:06:46;;;;;;;11.95;4.42;;;;;;;16.77;100.00;100504.02;1776314;79;21409;-44
2022/06/25 04:09:13;;;;;;;6.30;4.40;;;;;;;16.85;100.00;100504.55;1775609;80;21039;-43
2022/06/25 04:11:40;;;;;;;6.03;4.15;;;;;;;16.91;100.00;100502.10;1778662;80;20947;-43
2022/06/25 04:14:08;;;;;;;11.97;4.47;;;;;;;16.99;100.00;100512.25;1776307;80;21418;-44
2022/06/25 04:16:36;;;;;;;6.37;4.42;;;;;;;17.04;100.00;100519.43;1779455;80;21543;-43
2022/06/25 04:19:05;;;;;;;11.97;4.92;;;;;;;17.08;100.00;100520.55;1768722;80;20932;-43
2022/06/25 04:21:33;;;;;;;14.63;4.37;;;;;;;17.14;100.00;100527.27;1774672;80;21882;-43
2022/06/25 04:24:00;;;;;;;11.35;4.78;;;;;;;17.23;100.00;100528.63;1775087;79;20912;-44
2022/06/25 04:26:28;;;;;;;5.78;4.83;;;;;;;17.32;100.00;100530.81;1776178;79;21474;-43
2022/06/25 04:29:04;;;;;;;12.05;5.12;;;;;;;17.40;100.00;100534.84;1774779;80;20939;-44
2022/06/25 04:31:36;;;;;;;8.13;4.90;;;;;;;17.47;100.00;100536.28;1776041;80;21014;-44
2022/06/25 04:34:04;;;;;;;7.65;5.28;;;;;;;17.54;100.00;100532.45;1774945;80;21129;-44
2022/06/25 04:36:31;;;;;;;9.75;5.17;;;;;;;17.57;100.00;100536.23;1775137;79;20974;-43
2022/06/25 04:39:03;;;;;;;10.00;5.67;;;;;;;17.66;100.00;100532.34;1773884;80;20927;-44
2022/06/25 04:41:30;;;;;;;8.05;4.80;;;;;;;17.76;100.00;100525.73;1779704;79;20892;-44
2022/06/25 04:44:01;;;;;;;12.07;5.12;;;;;;;17.95;100.00;100522.24;1777751;78;21029;-44
2022/06/25 04:46:29;;;;;;;10.78;5.22;;;;;;;18.21;100.00;100522.77;1777071;80;21071;-44
2022/06/25 04:51:09;;;;;;;9.28;5.03;;;;;;;18.54;100.00;100532.48;1798569;79;22200;-44
2022/06/25 04:56:17;;;;;;;5.17;4.12;;;;;;;18.67;100.00;100535.32;1710484;81;21183;-43
2022/06/25 04:58:43;;;;;;;9.50;4.70;;;;;;;18.69;100.00;100536.56;1758022;81;20971;-43
2022/06/25 05:01:24;;;;;;;11.60;4.67;;;;;;;18.70;100.00;100539.13;1710610;81;20944;-43
2022/06/25 05:03:51;;;;;;;5.40;4.60;;;;;;;18.77;100.00;100544.88;1758265;81;20968;-43
2022/06/25 05:06:17;;;;;;;6.10;4.65;;;;;;;18.92;100.00;100544.54;1758149;81;20841;-43
2022/06/25 05:08:44;;;;;;;6.47;4.70;;;;;;;19.05;100.00;100547.40;1758069;81;21066;-43
2022/06/25 05:11:12;;;;;;;16.23;4.67;;;;;;;19.18;100.00;100543.66;1758120;81;21521;-43
2022/06/25 05:13:39;;;;;;;8.73;4.30;;;;;;;19.36;100.00;100545.30;1758090;81;20948;-43
2022/06/25 05:16:05;;;;;;;10.25;4.20;;;;;;;19.50;100.00;100551.12;1758025;81;21466;-43
2022/06/25 05:18:33;;;;;;;5.05;4.58;;;;;;;19.52;98.12;100558.92;1758220;81;20948;-44
2022/06/25 05:21:00;;;;;;;4.60;4.20;;;;;;;19.53;98.65;100555.36;1758203;81;21197;-43
2022/06/25 05:23:27;;;;;;;5.00;4.15;;;;;;;19.57;98.22;100556.89;1758351;81;21343;-43
2022/06/25 05:25:54;;;;;;;6.58;4.55;;;;;;;19.63;97.69;100557.86;1758066;81;20944;-43
2022/06/25 05:28:21;;;;;;;5.87;4.22;;;;;;;19.82;98.13;100566.03;1758154;81;20904;-43
2022/06/25 05:30:48;;;;;;;5.83;4.37;;;;;;;20.01;98.47;100569.81;1758259;81;21514;-43
2022/06/25 05:33:15;;;;;;;4.45;3.75;;;;;;;20.21;98.51;100573.09;1749854;81;21007;-43
2022/06/25 05:35:42;;;;;;;9.90;4.85;;;;;;;20.37;98.03;100572.61;1749781;82;20968;-44
2022/06/25 05:38:08;;;;;;;6.33;4.97;;;;;;;20.48;95.66;100573.30;1749847;80;20940;-44
2022/06/25 05:40:35;;;;;;;6.03;4.67;;;;;;;20.45;93.50;100569.51;1749853;82;20896;-45
2022/06/25 05:43:03;;;;;;;8.78;3.98;;;;;;;20.45;94.94;100573.94;1749771;80;20967;-44
2022/06/25 05:45:30;;;;;;;5.90;4.15;;;;;;;20.42;92.39;100567.55;1749889;82;21214;-44
2022/06/25 05:47:56;;;;;;;4.70;4.25;;;;;;;20.26;92.54;100573.67;1749851;82;20932;-44
2022/06/25 05:50:23;;;;;;;6.05;4.00;;;;;;;20.09;93.11;100575.50;1742191;81;20977;-44
2022/06/25 05:52:50;;;;;;;5.10;4.37;;;;;;;20.10;93.75;100571.94;1736573;82;21428;-44
2022/06/25 05:55:17;;;;;;;14.07;4.30;;;;;;;20.33;94.30;100569.75;1736581;81;21530;-45
2022/06/25 05:57:44;;;;;;;7.05;4.17;;;;;;;20.64;94.48;100575.87;1736572;82;21273;-43
2022/06/25 06:00:12;;;;;;;16.25;4.55;;;;;;;20.71;90.68;100575.50;1736523;82;21031;-43
2022/06/25 06:02:40;;;;;;;5.42;4.08;;;;;;;20.70;91.28;100577.75;1736028;81;21444;-44
2022/06/25 06:05:08;;;;;;;8.25;4.55;;;;;;;20.60;88.91;100580.08;1739609;81;20858;-43
2022/06/25 06:07:35;;;;;;;4.90;4.28;;;;;;;20.53;90.97;100575.64;1736170;82;20964;-43
2022/06/25 06:10:04;;;;;;;5.95;3.92;;;;;;;20.46;91.65;100582.20;1736106;81;21298;-44
2022/06/25 06:12:32;;;;;;;4.62;4.20;;;;;;;20.45;91.80;100584.45;1715564;82;20929;-44
2022/06/25 06:14:59;;;;;;;4.37;3.98;;;;;;;20.39;91.42;100577.75;1736068;82;20925;-43
2022/06/25 06:17:25;;;;;;;7.35;4.50;;;;;;;20.36;91.86;100585.38;1735990;82;20941;-44
2022/06/25 06:19:52;;;;;;;4.95;4.20;;;;;;;20.43;90.99;100592.41;1736343;82;21509;-43
2022/06/25 06:22:19;;;;;;;4.70;3.90;;;;;;;20.50;91.72;100588.52;1736109;81;21542;-44
2022/06/25 06:24:46;;;;;;;10.93;5.05;;;;;;;20.61;91.44;100596.23;1735931;82;20942;-44
2022/06/25 06:27:13;;;;;;;4.35;4.05;;;;;;;20.81;91.58;100596.39;1736007;82;20965;-43
2022/06/25 06:29:40;;;;;;;7.33;4.28;;;;;;;21.03;89.52;100592.48;1735949;82;20929;-44
2022/06/25 06:32:08;;;;;;;6.53;4.65;;;;;;;21.12;87.82;100591.94;1736073;82;20937;-44
2022/06/25 06:34:35;;;;;;;8.35;4.53;;;;;;;21.21;88.62;100597.08;1736211;82;21446;-44
2022/06/25 06:37:02;;;;;;;5.58;4.58;;;;;;;21.38;88.59;100595.59;1736015;81;20925;-44
2022/06/25 06:39:29;;;;;;;5.97;4.22;;;;;;;21.59;88.08;100591.25;1736169;82;21341;-44
2022/06/25 06:41:56;;;;;;;6.70;5.05;;;;;;;21.85;87.91;100603.72;1736036;82;20945;-44
2022/06/25 06:44:23;;;;;;;5.00;4.50;;;;;;;21.96;85.06;100603.41;1736107;81;20934;-44
2022/06/25 06:46:49;;;;;;;5.70;5.20;;;;;;;21.97;83.79;100602.95;1735946;82;21135;-44
2022/06/25 06:49:16;;;;;;;5.85;4.60;;;;;;;21.90;83.38;100602.98;1736028;82;20889;-44
2022/06/25 06:51:43;;;;;;;5.60;5.03;;;;;;;21.87;84.14;100602.70;1735993;82;20988;-44
2022/06/25 06:54:10;;;;;;;5.83;4.75;;;;;;;21.99;84.63;100597.11;1736002;82;20897;-44
2022/06/25 06:56:37;;;;;;;7.30;4.97;;;;;;;22.27;83.59;100596.63;1736373;82;21486;-44
2022/06/25 06:59:03;;;;;;;10.98;5.22;;;;;;;22.55;80.59;100608.50;1736098;82;21146;-44
2022/06/25 07:01:30;;;;;;;6.20;5.22;;;;;;;22.68;78.68;100600.98;1735808;81;20965;-44
2022/06/25 07:03:57;;;;;;;6.53;4.97;;;;;;;22.80;79.20;100605.91;1736115;82;20889;-44
2022/06/25 07:06:24;;;;;;;12.50;5.67;;;;;;;22.90;77.92;100604.81;1735968;82;21012;-44
2022/06/25 07:08:50;;;;;;;9.28;5.30;;;;;;;22.78;78.25;100608.27;1735825;81;21119;-44
2022/06/25 07:11:51;;;;;;;8.10;5.05;;;;;;;22.64;77.77;100614.02;1736052;81;21051;-44
2022/06/25 07:13:54;;;;;;;9.58;5.50;;;;;;;22.50;77.15;100616.71;1728827;82;21475;-44
2022/06/25 07:16:21;;;;;;;8.50;5.62;;;;;;;22.34;76.83;100613.73;1736106;82;20870;-45
2022/06/25 07:18:49;;;;;;;12.47;5.80;;;;;;;22.23;78.26;100615.77;1736062;82;20959;-44
2022/06/25 07:21:16;;;;;;;11.12;5.78;;;;;;;22.44;79.43;100615.77;1736096;82;21459;-45
2022/06/25 07:23:42;;;;;;;7.55;5.35;;;;;;;22.72;75.33;100628.47;1736146;82;21158;-45
2022/06/25 07:26:09;;;;;;;6.40;5.05;;;;;;;22.65;74.92;100631.98;1736041;82;20898;-44
2022/06/25 07:28:36;;;;;;;6.95;5.28;;;;;;;22.59;76.10;100636.36;1735953;82;20980;-44
2022/06/25 07:31:03;;;;;;;16.35;5.15;;;;;;;22.60;79.20;100634.92;1735848;81;20957;-44
2022/06/25 07:33:30;;;;;;;10.93;4.50;;;;;;;22.67;76.71;100633.59;1735999;82;20885;-44
2022/06/25 07:35:58;;;;;;;7.55;4.53;;;;;;;22.69;77.87;100636.11;1736022;81;21054;-44
2022/06/25 07:38:25;;;;;;;5.83;4.42;;;;;;;22.81;79.37;100633.12;1735953;82;20893;-44
2022/06/25 07:40:51;;;;;;;7.87;4.60;;;;;;;23.00;78.67;100626.14;1735973;82;21453;-44
2022/06/25 07:43:18;;;;;;;5.42;4.53;;;;;;;23.23;75.98;100629.82;1736046;82;20862;-44
2022/06/25 07:45:45;;;;;;;10.75;4.37;;;;;;;23.47;73.47;100621.62;1735867;82;20909;-45
2022/06/25 07:48:11;;;;;;;8.40;4.83;;;;;;;23.67;72.52;100634.27;1735900;82;21162;-44
2022/06/25 07:53:24;;;;;;;5.37;4.80;;;;;;;23.96;73.83;100637.11;1750196;82;20980;-45
2022/06/25 07:55:50;;;;;;;11.88;4.83;;;;;;;24.03;70.33;100640.20;1749901;81;21506;-45
2022/06/25 07:58:17;;;;;;;11.15;4.80;;;;;;;23.75;70.22;100630.27;1750062;82;20892;-45
2022/06/25 08:00:44;;;;;;;6.83;4.90;;;;;;;23.67;70.90;100635.59;1749810;81;21068;-45
2022/06/25 08:03:11;;;;;;;9.45;5.12;;;;;;;23.61;72.66;100633.86;1749942;81;21387;-44
2022/06/25 08:05:38;;;;;;;7.72;5.30;;;;;;;23.50;71.29;100639.93;1749998;80;20975;-45
2022/06/25 08:08:05;;;;;;;11.43;5.00;;;;;;;23.52;72.03;100638.84;1749964;82;20996;-45
2022/06/25 08:10:33;;;;;;;8.73;4.85;;;;;;;23.60;72.96;100640.95;1750087;82;21287;-45
2022/06/25 08:13:00;;;;;;;7.58;4.80;;;;;;;23.72;71.77;100631.31;1749959;82;21185;-43
2022/06/25 08:15:27;;;;;;;11.28;4.70;;;;;;;23.74;70.51;100634.69;1749847;81;20908;-43
2022/06/25 08:17:54;;;;;;;8.23;4.90;;;;;;;23.65;71.85;100632.72;1749971;82;21525;-43
2022/06/25 08:20:21;;;;;;;6.92;4.80;;;;;;;23.62;70.66;100639.51;1749854;82;20893;-43
2022/06/25 08:22:48;;;;;;;10.98;5.03;;;;;;;23.41;71.18;100634.81;1749906;81;21375;-43
2022/06/25 08:25:14;;;;;;;6.42;4.72;;;;;;;23.37;72.21;100636.81;1749802;81;21305;-43
2022/06/25 08:27:51;;;;;;;13.62;4.60;;;;;;;23.19;70.92;100645.97;1749715;81;20966;-45
2022/06/25 08:30:18;;;;;;;10.90;4.22;;;;;;;22.91;73.14;100647.39;1749795;81;20921;-45
2022/06/25 08:32:46;;;;;;;4.40;4.00;;;;;;;22.85;74.96;100653.06;1749827;81;21523;-45
2022/06/25 08:35:12;;;;;;;9.78;4.95;;;;;;;22.91;75.09;100651.36;1750066;82;20893;-45
2022/06/25 08:37:47;;;;;;;5.42;4.92;;;;;;;23.10;76.11;100650.08;1749880;81;21194;-45
2022/06/25 08:40:15;;;;;;;10.05;4.55;;;;;;;23.08;74.78;100648.02;1749851;82;20964;-44
2022/06/25 08:42:42;;;;;;;11.73;4.60;;;;;;;23.04;75.64;100646.09;1749891;81;20967;-43
2022/06/25 08:45:10;;;;;;;15.63;4.62;;;;;;;23.02;73.60;100651.09;1749963;82;21370;-44
2022/06/25 08:47:44;;;;;;;10.03;4.45;;;;;;;22.92;73.73;100653.05;1722404;82;20892;-43
2022/06/25 08:50:14;;;;;;;7.58;4.33;;;;;;;22.75;74.75;100648.05;1748740;82;21208;-44
2022/06/25 08:52:49;;;;;;;7.60;4.40;;;;;;;22.86;75.93;100650.83;1735860;82;20976;-43
2022/06/25 08:55:31;;;;;;;7.80;4.58;;;;;;;22.95;74.07;100657.25;1735871;82;20984;-44
2022/06/25 08:57:58;;;;;;;7.28;4.80;;;;;;;22.98;74.31;100654.40;1735884;82;20870;-43
2022/06/25 09:00:25;;;;;;;9.40;4.72;;;;;;;22.96;74.15;100658.94;1736128;82;20893;-43
2022/06/25 09:02:52;;;;;;;7.22;4.60;;;;;;;23.11;75.57;100661.01;1735852;81;21098;-43
2022/06/25 09:05:32;;;;;;;5.50;4.17;;;;;;;23.24;74.89;100657.91;1735928;81;21383;-44
2022/06/25 09:08:02;;;;;;;5.72;4.00;;;;;;;23.31;72.80;100659.69;1735991;82;20929;-44
2022/06/25 09:10:29;;;;;;;5.08;3.95;;;;;;;23.23;72.19;100657.54;1735889;82;20992;-43
2022/06/25 09:12:59;;;;;;;4.08;3.77;;;;;;;23.13;72.65;100653.86;1735890;82;20874;-43
2022/06/25 09:15:33;;;;;;;6.80;4.33;;;;;;;23.11;72.99;100658.37;1735365;82;21160;-44
2022/06/25 09:18:10;;;;;;;4.28;3.98;;;;;;;23.12;71.79;100656.12;1715513;82;20921;-43
2022/06/25 09:20:58;;;;;;;5.85;3.55;;;;;;;23.03;73.30;100663.33;1735972;82;20889;-43
2022/06/25 09:23:27;;;;;;;9.48;4.00;;;;;;;23.00;73.02;100662.23;1736305;81;20929;-44
2022/06/25 09:26:06;;;;;;;6.30;3.40;;;;;;;23.03;73.68;100662.02;1735751;82;20929;-43
2022/06/25 09:28:44;;;;;;;3.60;3.40;;;;;;;23.03;73.76;100654.95;1735905;81;21203;-44
2022/06/25 09:31:10;;;;;;;5.58;3.47;;;;;;;23.06;73.44;100659.16;1735768;82;20946;-43
2022/06/25 09:33:40;;;;;;;3.45;3.25;;;;;;;23.11;74.03;100667.61;1735926;81;20859;-44
2022/06/25 09:36:07;;;;;;;3.77;3.45;;;;;;;23.14;73.87;100663.47;1735869;82;20937;-44
2022/06/25 09:38:34;;;;;;;3.75;3.40;;;;;;;23.24;74.71;100659.23;1735954;82;20964;-43
2022/06/25 09:41:01;;;;;;;6.15;3.60;;;;;;;23.39;73.04;100663.13;1736129;82;21149;-43
2022/06/25 09:43:31;;;;;;;7.87;3.30;;;;;;;23.50;73.44;100658.42;1736028;81;20941;-44
2022/06/25 09:46:02;;;;;;;4.17;3.05;;;;;;;23.68;72.95;100649.67;1735680;82;21534;-44
2022/06/25 09:48:30;;;;;;;9.75;3.30;;;;;;;23.90;70.91;100656.06;1715076;82;20877;-43
2022/06/25 09:51:23;;;;;;;2.80;2.60;;;;;;;23.82;70.64;100650.00;1737987;81;20965;-44
2022/06/25 09:53:51;;;;;;;3.50;3.00;;;;;;;23.72;69.17;100651.13;1744321;82;21137;-44
2022/06/25 09:56:22;;;;;;;4.05;2.70;;;;;;;23.74;70.93;100644.40;1744239;82;20881;-44
2022/06/25 09:58:49;;;;;;;2.90;2.70;;;;;;;23.92;72.31;100650.19;1744121;82;20916;-44
2022/06/25 10:01:24;;;;;;;3.62;3.00;;;;;;;24.22;73.22;100647.63;1744304;82;21482;-44
2022/06/25 10:03:51;;;;;;;2.85;2.60;;;;;;;24.75;71.78;100639.80;1744332;82;20960;-44
2022/06/25 10:06:20;;;;;;;3.47;3.27;;;;;;;25.26;68.53;100637.21;1744310;82;21150;-44
2022/06/25 10:08:59;;;;;;;4.92;2.37;;;;;;;25.58;67.15;100636.54;1743948;81;20925;-44
2022/06/25 10:11:28;;;;;;;4.30;2.67;;;;;;;25.86;65.51;100636.13;1744064;82;20981;-44
2022/06/25 10:13:54;;;;;;;5.08;2.50;;;;;;;26.28;61.26;100638.93;1744127;82;20996;-44
2022/06/25 10:16:25;;;;;;;2.77;2.45;;;;;;;26.46;60.41;100633.91;1744099;82;20921;-43
2022/06/25 10:18:53;;;;;;;7.47;4.70;;;;;;;26.71;61.87;100639.81;1744108;82;21062;-44
2022/06/25 10:21:21;;;;;;;8.18;4.80;;;;;;;26.94;59.11;100631.27;1744127;81;20980;-44
2022/06/25 10:23:55;;;;;;;8.95;3.05;;;;;;;26.82;59.18;100624.30;1743959;81;20940;-44
2022/06/25 10:26:21;;;;;;;6.58;5.78;;;;;;;26.82;63.82;100628.28;1744079;82;20995;-45
2022/06/25 10:28:48;;;;;;;5.42;4.00;;;;;;;27.30;61.93;100624.25;1744143;82;20925;-45
2022/06/25 10:31:17;;;;;;;7.80;3.50;;;;;;;27.71;58.37;100625.59;1744078;82;21136;-44
2022/06/25 10:34:04;;;;;;;3.45;2.85;;;;;;;27.67;58.78;100629.50;1744117;82;20957;-44
2022/06/25 10:36:47;;;;;;;3.30;3.10;;;;;;;27.49;58.36;100631.44;1715160;82;21454;-44
2022/06/25 10:39:29;;;;;;;5.53;2.67;;;;;;;27.36;59.17;100635.66;1743989;82;20972;-44
2022/06/25 10:45:16;;;;;;;4.20;3.27;;;;;;;26.97;59.72;100631.48;1744072;82;22223;-45
2022/06/25 10:47:50;;;;;;;4.50;3.30;;;;;;;27.17;59.10;100622.29;1743814;82;21545;-44
2022/06/25 10:50:26;;;;;;;8.58;2.70;;;;;;;27.33;59.64;100617.80;1743869;82;21427;-44
2022/06/25 10:53:05;;;;;;;;;;;;;;;27.60;59.41;100617.24;1739173;81;21015;-44
2022/06/25 10:55:50;;;;;;;4.35;2.52;;;;;;;28.07;55.91;100609.13;1736048;82;20128;-44
2022/06/25 10:58:25;;;;;;;24.70;3.60;;;;;;;28.44;57.49;100604.95;1735741;81;22070;-44
2022/06/25 11:00:59;;;;;;;8.13;2.50;;;;;;;29.14;57.20;100607.82;1736110;82;21019;-44
2022/06/25 11:03:38;;;;;;;4.75;4.08;;;;;;;29.46;51.34;100600.76;1735933;82;20921;-44
2022/06/25 11:06:32;;;;;;;5.45;2.87;;;;;;;29.28;51.55;100595.84;1735888;82;20850;-44
2022/06/25 11:09:11;;;;;;;7.87;2.27;;;;;;;29.19;54.15;100595.75;1735957;82;21051;-44
2022/06/25 11:11:38;;;;;;;6.58;2.35;;;;;;;29.15;52.65;100598.84;1735908;82;21787;-44
2022/06/25 11:14:15;;;;;;;8.70;2.30;;;;;;;28.95;52.14;100601.09;1735812;82;20906;-44
2022/06/25 11:16:43;;;;;;;5.25;2.45;;;;;;;28.88;52.72;100601.81;1736049;82;21470;-44
2022/06/25 11:19:10;;;;;;;2.15;2.05;;;;;;;29.10;53.51;100601.94;1736024;81;20984;-44
2022/06/25 11:21:39;;;;;;;6.35;2.30;;;;;;;29.14;51.63;100605.98;1735856;82;20921;-44
2022/06/25 11:24:24;;;;;;;3.70;2.08;;;;;;;28.79;53.64;100600.34;1735908;82;21302;-43
2022/06/25 11:29:51;;;;;;;8.63;2.17;;;;;;;28.73;52.12;100600.89;1735996;81;21455;-43
2022/06/25 11:32:26;;;;;;;3.77;2.70;;;;;;;28.71;50.92;100596.20;1735719;82;20936;-44
2022/06/25 11:34:56;;;;;;;12.85;2.37;;;;;;;28.70;52.50;100592.38;1736173;82;21537;-44
2022/06/25 11:37:23;;;;;;;3.37;1.90;;;;;;;28.90;50.89;100598.00;1735775;82;21160;-44
2022/06/25 11:39:50;;;;;;;3.58;1.80;;;;;;;28.84;52.87;100606.58;1735870;82;21387;-43
2022/06/25 11:42:17;;;;;;;8.55;2.10;;;;;;;28.34;53.21;100604.96;1735906;81;20862;-44
2022/06/25 11:44:49;;;;;;;7.67;1.90;;;;;;;27.57;55.50;100608.69;1736008;81;20945;-44
2022/06/25 11:47:24;;;;;;;9.20;2.00;;;;;;;26.94;58.86;100604.72;1736036;82;21450;-44